Weather

EOSM Weather Station at 16:39 on 11/12/17

Wind: 4kt WNW ( 4mph 287° ) Today's High: 12kt at 1:26 QFE: 989mb QNH: 993mb (Rising Rapidly) Temp: 2°C Dew Point: 1°C Humidity: 90% Rain: None Sunrise: 8:31 Sunset: 15:35

TAFs

  • Edinburgh TAF AMD EGPH 111559Z 1116/1212 26005KT 9999 SCT040 TEMPO 1116/1121 7000
  • Leuchars TAF AMD EGQL 111313Z 1113/1121 27008KT 9999 FEW045

Live Airfield Webcams

Looking north towards Berwick Law Looking west Looking east

Windy.com Forecast

Met Office Five Day Forecast

OZEE AND BLUE SKY BLUE FLYING SUITS

We are offering a 5% discount on the price of Ozee and Blue Sky Blue flying suits - please send an email to jill@eosm.co.uk giving your choice of suit, size and colour preference.

Pooleys advert

Pooleys are supporting East of Scotland Microlights members and guests by offering 5% discount to anyone making a purchase on their website www.pooleys.com. Simply enter the promotional code "EOSM" when you checkout and you will get a 5% discount on whatever you buy.